sensor_id;sensor_type;location;lat;lon;timestamp;temperature;humidity
65203;HTU21D;51788;45.124;38.966;2022-09-03T00:00:20;22.93;48.91
65203;HTU21D;51788;45.124;38.966;2022-09-03T00:05:49;22.84;48.97
65203;HTU21D;51788;45.124;38.966;2022-09-03T00:08:59;22.80;48.96
65203;HTU21D;51788;45.124;38.966;2022-09-03T00:11:24;22.75;48.92
65203;HTU21D;51788;45.124;38.966;2022-09-03T00:14:03;22.71;49.00
65203;HTU21D;51788;45.124;38.966;2022-09-03T00:16:58;22.67;49.05
65203;HTU21D;51788;45.124;38.966;2022-09-03T00:19:32;22.65;49.08
65203;HTU21D;51788;45.124;38.966;2022-09-03T00:22:04;22.63;48.99
65203;HTU21D;51788;45.124;38.966;2022-09-03T00:24:35;22.60;49.03
65203;HTU21D;51788;45.124;38.966;2022-09-03T00:27:06;22.56;48.94
65203;HTU21D;51788;45.124;38.966;2022-09-03T00:29:48;22.55;48.93
65203;HTU21D;51788;45.124;38.966;2022-09-03T00:35:09;22.44;49.07
65203;HTU21D;51788;45.124;38.966;2022-09-03T00:37:35;22.42;49.15
65203;HTU21D;51788;45.124;38.966;2022-09-03T00:40:02;22.38;49.16
65203;HTU21D;51788;45.124;38.966;2022-09-03T00:42:53;22.32;49.15
65203;HTU21D;51788;45.124;38.966;2022-09-03T00:45:30;22.28;49.17
65203;HTU21D;51788;45.124;38.966;2022-09-03T00:48:20;22.26;49.24
65203;HTU21D;51788;45.124;38.966;2022-09-03T00:51:14;22.18;49.43
65203;HTU21D;51788;45.124;38.966;2022-09-03T00:56:39;21.88;50.04
65203;HTU21D;51788;45.124;38.966;2022-09-03T01:02:11;21.72;50.50
65203;HTU21D;51788;45.124;38.966;2022-09-03T01:10:34;21.51;50.79
65203;HTU21D;51788;45.124;38.966;2022-09-03T01:26:39;21.36;50.96
65203;HTU21D;51788;45.124;38.966;2022-09-03T01:32:07;21.47;50.64
65203;HTU21D;51788;45.124;38.966;2022-09-03T01:51:13;21.54;50.47
65203;HTU21D;51788;45.124;38.966;2022-09-03T01:54:08;21.50;50.59
65203;HTU21D;51788;45.124;38.966;2022-09-03T01:57:03;21.46;50.72
65203;HTU21D;51788;45.124;38.966;2022-09-03T01:59:38;21.42;50.81
65203;HTU21D;51788;45.124;38.966;2022-09-03T02:02:17;21.40;50.87
65203;HTU21D;51788;45.124;38.966;2022-09-03T02:07:22;21.33;51.04
65203;HTU21D;51788;45.124;38.966;2022-09-03T02:09:50;21.31;51.12
65203;HTU21D;51788;45.124;38.966;2022-09-03T02:12:16;21.29;51.21
65203;HTU21D;51788;45.124;38.966;2022-09-03T02:14:45;21.27;51.26
65203;HTU21D;51788;45.124;38.966;2022-09-03T02:17:11;21.22;51.37
65203;HTU21D;51788;45.124;38.966;2022-09-03T02:19:38;21.21;51.46
65203;HTU21D;51788;45.124;38.966;2022-09-03T02:22:04;21.17;51.55
65203;HTU21D;51788;45.124;38.966;2022-09-03T02:24:31;21.14;51.65
65203;HTU21D;51788;45.124;38.966;2022-09-03T02:26:57;21.14;51.72
65203;HTU21D;51788;45.124;38.966;2022-09-03T02:29:25;21.10;51.84
65203;HTU21D;51788;45.124;38.966;2022-09-03T02:31:51;21.07;51.99
65203;HTU21D;51788;45.124;38.966;2022-09-03T02:34:17;21.04;52.07
65203;HTU21D;51788;45.124;38.966;2022-09-03T02:36:45;21.00;52.20
65203;HTU21D;51788;45.124;38.966;2022-09-03T02:39:13;20.94;52.39
65203;HTU21D;51788;45.124;38.966;2022-09-03T02:41:39;20.87;52.49
65203;HTU21D;51788;45.124;38.966;2022-09-03T02:44:17;20.80;52.75
65203;HTU21D;51788;45.124;38.966;2022-09-03T02:47:01;20.77;52.93
65203;HTU21D;51788;45.124;38.966;2022-09-03T02:49:28;20.79;52.84
65203;HTU21D;51788;45.124;38.966;2022-09-03T02:51:59;20.78;52.94
65203;HTU21D;51788;45.124;38.966;2022-09-03T02:54:32;20.76;52.95
65203;HTU21D;51788;45.124;38.966;2022-09-03T02:57:01;20.76;53.03
65203;HTU21D;51788;45.124;38.966;2022-09-03T02:59:27;20.80;53.03
65203;HTU21D;51788;45.124;38.966;2022-09-03T03:01:54;20.84;53.03
65203;HTU21D;51788;45.124;38.966;2022-09-03T03:04:20;20.85;53.00
65203;HTU21D;51788;45.124;38.966;2022-09-03T03:06:46;20.87;53.04
65203;HTU21D;51788;45.124;38.966;2022-09-03T03:09:16;20.90;53.03
65203;HTU21D;51788;45.124;38.966;2022-09-03T03:11:42;20.91;53.02
65203;HTU21D;51788;45.124;38.966;2022-09-03T03:14:08;20.91;53.04
65203;HTU21D;51788;45.124;38.966;2022-09-03T03:16:34;20.95;53.06
65203;HTU21D;51788;45.124;38.966;2022-09-03T03:19:00;20.94;53.09
65203;HTU21D;51788;45.124;38.966;2022-09-03T03:21:26;20.96;53.14
65203;HTU21D;51788;45.124;38.966;2022-09-03T03:23:52;20.99;53.22
65203;HTU21D;51788;45.124;38.966;2022-09-03T03:26:19;20.93;53.33
65203;HTU21D;51788;45.124;38.966;2022-09-03T03:28:54;20.96;53.42
65203;HTU21D;51788;45.124;38.966;2022-09-03T03:31:22;20.93;53.43
65203;HTU21D;51788;45.124;38.966;2022-09-03T03:33:53;20.95;53.54
65203;HTU21D;51788;45.124;38.966;2022-09-03T03:36:20;20.95;53.55
65203;HTU21D;51788;45.124;38.966;2022-09-03T03:38:47;20.99;53.58
65203;HTU21D;51788;45.124;38.966;2022-09-03T03:41:18;21.00;53.62
65203;HTU21D;51788;45.124;38.966;2022-09-03T03:43:46;21.01;53.61
65203;HTU21D;51788;45.124;38.966;2022-09-03T03:46:13;21.04;53.60
65203;HTU21D;51788;45.124;38.966;2022-09-03T03:48:40;21.06;53.61
65203;HTU21D;51788;45.124;38.966;2022-09-03T03:51:07;21.10;53.61
65203;HTU21D;51788;45.124;38.966;2022-09-03T03:53:35;21.15;53.58
65203;HTU21D;51788;45.124;38.966;2022-09-03T03:56:04;21.17;53.56
65203;HTU21D;51788;45.124;38.966;2022-09-03T03:58:31;21.20;53.57
65203;HTU21D;51788;45.124;38.966;2022-09-03T04:01:06;21.25;53.62
65203;HTU21D;51788;45.124;38.966;2022-09-03T04:03:36;21.32;53.49
65203;HTU21D;51788;45.124;38.966;2022-09-03T04:06:05;21.36;53.52
65203;HTU21D;51788;45.124;38.966;2022-09-03T04:08:36;21.43;53.46
65203;HTU21D;51788;45.124;38.966;2022-09-03T04:11:04;21.48;53.39
65203;HTU21D;51788;45.124;38.966;2022-09-03T04:13:31;21.50;53.39
65203;HTU21D;51788;45.124;38.966;2022-09-03T04:16:03;21.54;53.36
65203;HTU21D;51788;45.124;38.966;2022-09-03T04:18:30;21.62;53.27
65203;HTU21D;51788;45.124;38.966;2022-09-03T04:21:08;21.68;53.26
65203;HTU21D;51788;45.124;38.966;2022-09-03T04:23:37;21.73;53.16
65203;HTU21D;51788;45.124;38.966;2022-09-03T04:26:04;21.82;52.99
65203;HTU21D;51788;45.124;38.966;2022-09-03T04:28:32;21.88;52.81
65203;HTU21D;51788;45.124;38.966;2022-09-03T04:31:03;21.94;52.76
65203;HTU21D;51788;45.124;38.966;2022-09-03T04:33:31;21.94;52.65
65203;HTU21D;51788;45.124;38.966;2022-09-03T04:36:06;22.01;52.52
65203;HTU21D;51788;45.124;38.966;2022-09-03T04:38:34;22.09;52.37
65203;HTU21D;51788;45.124;38.966;2022-09-03T04:41:00;22.13;52.25
65203;HTU21D;51788;45.124;38.966;2022-09-03T04:43:29;22.17;52.22
65203;HTU21D;51788;45.124;38.966;2022-09-03T04:46:00;22.22;52.09
65203;HTU21D;51788;45.124;38.966;2022-09-03T04:48:28;22.28;51.74
65203;HTU21D;51788;45.124;38.966;2022-09-03T04:50:59;22.29;51.64
65203;HTU21D;51788;45.124;38.966;2022-09-03T04:53:31;22.33;51.54
65203;HTU21D;51788;45.124;38.966;2022-09-03T04:55:57;22.35;51.52
65203;HTU21D;51788;45.124;38.966;2022-09-03T04:58:23;22.41;51.48
65203;HTU21D;51788;45.124;38.966;2022-09-03T05:00:49;22.43;51.33
65203;HTU21D;51788;45.124;38.966;2022-09-03T05:03:15;22.48;51.17
65203;HTU21D;51788;45.124;38.966;2022-09-03T05:05:41;22.52;51.17
65203;HTU21D;51788;45.124;38.966;2022-09-03T05:08:07;22.58;51.13
65203;HTU21D;51788;45.124;38.966;2022-09-03T05:10:33;22.62;50.95
65203;HTU21D;51788;45.124;38.966;2022-09-03T05:13:02;22.64;50.98
65203;HTU21D;51788;45.124;38.966;2022-09-03T05:15:30;22.72;50.88
65203;HTU21D;51788;45.124;38.966;2022-09-03T05:17:57;22.80;51.00
65203;HTU21D;51788;45.124;38.966;2022-09-03T05:20:24;22.88;50.79
65203;HTU21D;51788;45.124;38.966;2022-09-03T05:22:50;22.95;50.79
65203;HTU21D;51788;45.124;38.966;2022-09-03T05:25:17;23.02;50.64
65203;HTU21D;51788;45.124;38.966;2022-09-03T05:27:43;23.03;50.61
65203;HTU21D;51788;45.124;38.966;2022-09-03T05:30:09;23.09;50.55
65203;HTU21D;51788;45.124;38.966;2022-09-03T05:32:35;23.18;50.59
65203;HTU21D;51788;45.124;38.966;2022-09-03T05:35:01;23.23;50.32
65203;HTU21D;51788;45.124;38.966;2022-09-03T05:37:27;23.24;50.16
65203;HTU21D;51788;45.124;38.966;2022-09-03T05:39:53;23.23;50.30
65203;HTU21D;51788;45.124;38.966;2022-09-03T05:42:19;23.32;50.41
65203;HTU21D;51788;45.124;38.966;2022-09-03T05:44:46;23.43;50.21
65203;HTU21D;51788;45.124;38.966;2022-09-03T05:47:14;23.51;50.15
65203;HTU21D;51788;45.124;38.966;2022-09-03T05:49:41;23.59;49.91
65203;HTU21D;51788;45.124;38.966;2022-09-03T05:52:07;23.61;49.63
65203;HTU21D;51788;45.124;38.966;2022-09-03T05:54:34;23.61;49.66
65203;HTU21D;51788;45.124;38.966;2022-09-03T05:57:00;23.62;49.82
65203;HTU21D;51788;45.124;38.966;2022-09-03T05:59:26;23.73;49.72
65203;HTU21D;51788;45.124;38.966;2022-09-03T06:01:52;23.77;49.60
65203;HTU21D;51788;45.124;38.966;2022-09-03T06:04:19;23.88;49.74
65203;HTU21D;51788;45.124;38.966;2022-09-03T06:06:46;23.98;49.56
65203;HTU21D;51788;45.124;38.966;2022-09-03T06:09:20;24.03;49.32
65203;HTU21D;51788;45.124;38.966;2022-09-03T06:11:47;24.01;49.40
65203;HTU21D;51788;45.124;38.966;2022-09-03T06:14:14;24.03;49.38
65203;HTU21D;51788;45.124;38.966;2022-09-03T06:16:43;24.09;49.38
65203;HTU21D;51788;45.124;38.966;2022-09-03T06:19:10;24.19;49.34
65203;HTU21D;51788;45.124;38.966;2022-09-03T06:21:39;24.31;49.01
65203;HTU21D;51788;45.124;38.966;2022-09-03T06:24:15;24.31;49.10
65203;HTU21D;51788;45.124;38.966;2022-09-03T06:26:41;24.42;49.17
65203;HTU21D;51788;45.124;38.966;2022-09-03T06:29:08;24.49;49.06
65203;HTU21D;51788;45.124;38.966;2022-09-03T06:31:35;24.56;48.93
65203;HTU21D;51788;45.124;38.966;2022-09-03T06:34:01;24.63;48.88
65203;HTU21D;51788;45.124;38.966;2022-09-03T06:36:27;24.70;48.84
65203;HTU21D;51788;45.124;38.966;2022-09-03T06:38:55;24.74;48.94
65203;HTU21D;51788;45.124;38.966;2022-09-03T06:41:24;24.78;48.64
65203;HTU21D;51788;45.124;38.966;2022-09-03T06:44:02;24.84;48.85
65203;HTU21D;51788;45.124;38.966;2022-09-03T06:46:30;24.95;48.57
65203;HTU21D;51788;45.124;38.966;2022-09-03T06:48:56;25.04;48.44
65203;HTU21D;51788;45.124;38.966;2022-09-03T06:51:24;25.05;48.37
65203;HTU21D;51788;45.124;38.966;2022-09-03T06:53:53;25.04;48.33
65203;HTU21D;51788;45.124;38.966;2022-09-03T06:56:22;25.09;48.44
65203;HTU21D;51788;45.124;38.966;2022-09-03T06:58:57;25.13;48.19
65203;HTU21D;51788;45.124;38.966;2022-09-03T07:01:26;25.16;48.28
65203;HTU21D;51788;45.124;38.966;2022-09-03T07:04:03;25.23;48.43
65203;HTU21D;51788;45.124;38.966;2022-09-03T07:06:32;25.37;48.40
65203;HTU21D;51788;45.124;38.966;2022-09-03T07:08:58;25.47;48.18
65203;HTU21D;51788;45.124;38.966;2022-09-03T07:11:27;25.49;48.20
65203;HTU21D;51788;45.124;38.966;2022-09-03T07:13:56;25.57;48.25
65203;HTU21D;51788;45.124;38.966;2022-09-03T07:16:28;25.68;48.24
65203;HTU21D;51788;45.124;38.966;2022-09-03T07:18:54;25.79;48.01
65203;HTU21D;51788;45.124;38.966;2022-09-03T07:21:23;25.84;48.08
65203;HTU21D;51788;45.124;38.966;2022-09-03T07:23:51;25.93;47.99
65203;HTU21D;51788;45.124;38.966;2022-09-03T07:26:25;25.93;47.99
65203;HTU21D;51788;45.124;38.966;2022-09-03T07:28:52;25.90;48.01
65203;HTU21D;51788;45.124;38.966;2022-09-03T07:31:25;25.88;48.05
65203;HTU21D;51788;45.124;38.966;2022-09-03T07:33:59;25.92;48.39
65203;HTU21D;51788;45.124;38.966;2022-09-03T07:36:28;26.02;48.24
65203;HTU21D;51788;45.124;38.966;2022-09-03T07:38:56;26.08;48.27
65203;HTU21D;51788;45.124;38.966;2022-09-03T07:41:25;26.25;48.15
65203;HTU21D;51788;45.124;38.966;2022-09-03T07:43:52;26.37;48.02
65203;HTU21D;51788;45.124;38.966;2022-09-03T07:46:21;26.43;47.72
65203;HTU21D;51788;45.124;38.966;2022-09-03T07:51:16;26.52;47.73
65203;HTU21D;51788;45.124;38.966;2022-09-03T07:53:43;26.57;47.63
65203;HTU21D;51788;45.124;38.966;2022-09-03T07:56:10;26.67;47.59
65203;HTU21D;51788;45.124;38.966;2022-09-03T07:58:37;26.76;47.41
65203;HTU21D;51788;45.124;38.966;2022-09-03T08:01:06;26.81;47.28
65203;HTU21D;51788;45.124;38.966;2022-09-03T08:03:36;26.81;47.05
65203;HTU21D;51788;45.124;38.966;2022-09-03T08:06:05;26.82;47.40
65203;HTU21D;51788;45.124;38.966;2022-09-03T08:08:33;26.91;47.18
65203;HTU21D;51788;45.124;38.966;2022-09-03T08:11:09;26.97;47.04
65203;HTU21D;51788;45.124;38.966;2022-09-03T08:13:43;27.04;47.20
65203;HTU21D;51788;45.124;38.966;2022-09-03T08:16:11;27.15;47.05
65203;HTU21D;51788;45.124;38.966;2022-09-03T08:18:38;27.24;46.91
65203;HTU21D;51788;45.124;38.966;2022-09-03T08:21:10;27.15;46.81
65203;HTU21D;51788;45.124;38.966;2022-09-03T08:23:40;27.19;46.81
65203;HTU21D;51788;45.124;38.966;2022-09-03T08:26:08;27.23;46.88
65203;HTU21D;51788;45.124;38.966;2022-09-03T08:28:34;27.30;46.86
65203;HTU21D;51788;45.124;38.966;2022-09-03T08:31:11;27.34;46.47
65203;HTU21D;51788;45.124;38.966;2022-09-03T08:33:42;27.27;46.60
65203;HTU21D;51788;45.124;38.966;2022-09-03T08:36:10;27.26;46.76
65203;HTU21D;51788;45.124;38.966;2022-09-03T08:38:40;27.25;46.75
65203;HTU21D;51788;45.124;38.966;2022-09-03T08:41:12;27.31;46.83
65203;HTU21D;51788;45.124;38.966;2022-09-03T08:46:54;27.36;46.81
65203;HTU21D;51788;45.124;38.966;2022-09-03T08:52:43;27.40;46.80
65203;HTU21D;51788;45.124;38.966;2022-09-03T08:55:30;27.52;46.65
65203;HTU21D;51788;45.124;38.966;2022-09-03T08:58:12;27.53;46.88
65203;HTU21D;51788;45.124;38.966;2022-09-03T09:09:04;27.88;46.64
65203;HTU21D;51788;45.124;38.966;2022-09-03T09:14:02;28.09;45.94
65203;HTU21D;51788;45.124;38.966;2022-09-03T09:16:41;28.10;45.87
65203;HTU21D;51788;45.124;38.966;2022-09-03T09:19:41;28.10;46.00
65203;HTU21D;51788;45.124;38.966;2022-09-03T09:22:21;28.17;45.94
65203;HTU21D;51788;45.124;38.966;2022-09-03T09:24:52;28.30;45.96
65203;HTU21D;51788;45.124;38.966;2022-09-03T09:27:20;28.44;45.50
65203;HTU21D;51788;45.124;38.966;2022-09-03T09:29:48;28.42;45.50
65203;HTU21D;51788;45.124;38.966;2022-09-03T09:32:16;28.45;45.79
65203;HTU21D;51788;45.124;38.966;2022-09-03T09:34:44;28.52;45.57
65203;HTU21D;51788;45.124;38.966;2022-09-03T09:37:12;28.59;45.66
65203;HTU21D;51788;45.124;38.966;2022-09-03T09:39:40;28.69;45.54
65203;HTU21D;51788;45.124;38.966;2022-09-03T09:42:08;28.77;45.41
65203;HTU21D;51788;45.124;38.966;2022-09-03T09:44:37;28.75;45.45
65203;HTU21D;51788;45.124;38.966;2022-09-03T09:47:14;28.78;45.32
65203;HTU21D;51788;45.124;38.966;2022-09-03T09:52:17;28.97;45.48
65203;HTU21D;51788;45.124;38.966;2022-09-03T09:54:44;29.09;45.32
65203;HTU21D;51788;45.124;38.966;2022-09-03T09:57:21;29.22;44.83
65203;HTU21D;51788;45.124;38.966;2022-09-03T09:59:48;29.16;44.87
65203;HTU21D;51788;45.124;38.966;2022-09-03T10:02:23;29.20;45.00
65203;HTU21D;51788;45.124;38.966;2022-09-03T10:05:10;29.22;44.80
65203;HTU21D;51788;45.124;38.966;2022-09-03T10:07:37;29.44;44.67
65203;HTU21D;51788;45.124;38.966;2022-09-03T10:12:44;30.75;42.38
65203;HTU21D;51788;45.124;38.966;2022-09-03T10:20:44;30.04;43.95
65203;HTU21D;51788;45.124;38.966;2022-09-03T10:23:27;30.01;43.73
65203;HTU21D;51788;45.124;38.966;2022-09-03T10:28:33;29.87;44.28
65203;HTU21D;51788;45.124;38.966;2022-09-03T10:39:21;30.03;44.13
65203;HTU21D;51788;45.124;38.966;2022-09-03T10:50:15;30.07;43.71
65203;HTU21D;51788;45.124;38.966;2022-09-03T10:53:13;30.06;43.74
65203;HTU21D;51788;45.124;38.966;2022-09-03T11:00:52;30.27;44.06
65203;HTU21D;51788;45.124;38.966;2022-09-03T11:03:43;30.41;44.01
65203;HTU21D;51788;45.124;38.966;2022-09-03T11:06:16;30.51;44.01
65203;HTU21D;51788;45.124;38.966;2022-09-03T11:11:44;30.47;43.81
65203;HTU21D;51788;45.124;38.966;2022-09-03T11:14:17;30.42;44.03
65203;HTU21D;51788;45.124;38.966;2022-09-03T11:17:01;30.51;43.95
65203;HTU21D;51788;45.124;38.966;2022-09-03T11:19:42;30.61;43.43
65203;HTU21D;51788;45.124;38.966;2022-09-03T11:22:13;30.61;43.54
65203;HTU21D;51788;45.124;38.966;2022-09-03T11:24:47;30.66;43.82
65203;HTU21D;51788;45.124;38.966;2022-09-03T11:29:52;30.78;43.67
65203;HTU21D;51788;45.124;38.966;2022-09-03T11:32:24;30.75;43.92
65203;HTU21D;51788;45.124;38.966;2022-09-03T11:34:53;30.76;44.22
65203;HTU21D;51788;45.124;38.966;2022-09-03T11:37:26;30.86;44.26
65203;HTU21D;51788;45.124;38.966;2022-09-03T11:42:37;31.01;44.38
65203;HTU21D;51788;45.124;38.966;2022-09-03T11:47:58;31.07;43.95
65203;HTU21D;51788;45.124;38.966;2022-09-03T11:50:29;31.04;44.03
65203;HTU21D;51788;45.124;38.966;2022-09-03T11:53:21;30.98;44.28
65203;HTU21D;51788;45.124;38.966;2022-09-03T11:55:59;30.93;44.32
65203;HTU21D;51788;45.124;38.966;2022-09-03T11:58:32;30.91;44.75
65203;HTU21D;51788;45.124;38.966;2022-09-03T12:01:07;30.90;44.96
65203;HTU21D;51788;45.124;38.966;2022-09-03T12:03:47;30.94;44.90
65203;HTU21D;51788;45.124;38.966;2022-09-03T12:09:19;31.04;44.85
65203;HTU21D;51788;45.124;38.966;2022-09-03T12:14:49;31.18;44.87
65203;HTU21D;51788;45.124;38.966;2022-09-03T12:20:14;31.18;44.94
65203;HTU21D;51788;45.124;38.966;2022-09-03T12:22:41;31.12;44.80
65203;HTU21D;51788;45.124;38.966;2022-09-03T12:25:14;31.12;44.79
65203;HTU21D;51788;45.124;38.966;2022-09-03T12:27:43;31.15;44.88
65203;HTU21D;51788;45.124;38.966;2022-09-03T12:30:18;31.18;45.02
65203;HTU21D;51788;45.124;38.966;2022-09-03T12:32:46;31.19;45.12
65203;HTU21D;51788;45.124;38.966;2022-09-03T12:35:18;31.27;45.03
65203;HTU21D;51788;45.124;38.966;2022-09-03T12:37:45;31.31;45.00
65203;HTU21D;51788;45.124;38.966;2022-09-03T12:40:22;31.35;45.12
65203;HTU21D;51788;45.124;38.966;2022-09-03T12:42:49;31.36;45.48
65203;HTU21D;51788;45.124;38.966;2022-09-03T12:45:22;31.48;45.64
65203;HTU21D;51788;45.124;38.966;2022-09-03T12:47:49;31.50;45.72
65203;HTU21D;51788;45.124;38.966;2022-09-03T12:50:20;31.49;45.86
65203;HTU21D;51788;45.124;38.966;2022-09-03T12:52:59;31.45;45.76
65203;HTU21D;51788;45.124;38.966;2022-09-03T12:55:34;31.37;45.98
65203;HTU21D;51788;45.124;38.966;2022-09-03T13:01:07;31.37;46.17
65203;HTU21D;51788;45.124;38.966;2022-09-03T13:03:44;31.42;46.15
65203;HTU21D;51788;45.124;38.966;2022-09-03T13:06:15;31.45;45.99
65203;HTU21D;51788;45.124;38.966;2022-09-03T13:08:48;31.37;46.22
65203;HTU21D;51788;45.124;38.966;2022-09-03T13:11:20;31.41;46.40
65203;HTU21D;51788;45.124;38.966;2022-09-03T13:14:02;31.42;45.93
65203;HTU21D;51788;45.124;38.966;2022-09-03T13:28:24;31.54;45.01
65203;HTU21D;51788;45.124;38.966;2022-09-03T13:31:08;31.57;44.84
65203;HTU21D;51788;45.124;38.966;2022-09-03T13:33:44;31.58;44.84
65203;HTU21D;51788;45.124;38.966;2022-09-03T13:36:19;31.63;44.80
65203;HTU21D;51788;45.124;38.966;2022-09-03T13:41:32;31.64;44.70
65203;HTU21D;51788;45.124;38.966;2022-09-03T13:44:15;31.65;44.49
65203;HTU21D;51788;45.124;38.966;2022-09-03T13:49:48;31.59;44.16
65203;HTU21D;51788;45.124;38.966;2022-09-03T13:55:34;31.51;44.29
65203;HTU21D;51788;45.124;38.966;2022-09-03T13:58:37;31.52;44.33
65203;HTU21D;51788;45.124;38.966;2022-09-03T14:03:59;31.53;44.21
65203;HTU21D;51788;45.124;38.966;2022-09-03T14:06:41;31.50;44.20
65203;HTU21D;51788;45.124;38.966;2022-09-03T14:15:25;31.44;44.32
65203;HTU21D;51788;45.124;38.966;2022-09-03T14:20:47;31.44;44.51
65203;HTU21D;51788;45.124;38.966;2022-09-03T14:25:58;31.40;44.32
65203;HTU21D;51788;45.124;38.966;2022-09-03T14:28:39;31.36;44.42
65203;HTU21D;51788;45.124;38.966;2022-09-03T14:34:11;31.34;44.13
65203;HTU21D;51788;45.124;38.966;2022-09-03T14:47:34;31.14;44.27
65203;HTU21D;51788;45.124;38.966;2022-09-03T14:50:43;31.14;44.05
65203;HTU21D;51788;45.124;38.966;2022-09-03T15:01:38;31.02;43.20
65203;HTU21D;51788;45.124;38.966;2022-09-03T15:06:46;30.97;43.06
65203;HTU21D;51788;45.124;38.966;2022-09-03T15:09:22;30.92;43.22
65203;HTU21D;51788;45.124;38.966;2022-09-03T15:11:58;30.85;43.46
65203;HTU21D;51788;45.124;38.966;2022-09-03T15:14:45;30.80;43.57
65203;HTU21D;51788;45.124;38.966;2022-09-03T15:17:49;30.72;43.71
65203;HTU21D;51788;45.124;38.966;2022-09-03T15:20:30;30.65;43.86
65203;HTU21D;51788;45.124;38.966;2022-09-03T15:31:13;30.40;44.00
65203;HTU21D;51788;45.124;38.966;2022-09-03T15:34:24;30.34;44.15
65203;HTU21D;51788;45.124;38.966;2022-09-03T15:36:57;30.26;44.28
65203;HTU21D;51788;45.124;38.966;2022-09-03T15:39:33;30.19;44.41
65203;HTU21D;51788;45.124;38.966;2022-09-03T15:42:17;30.15;44.43
65203;HTU21D;51788;45.124;38.966;2022-09-03T15:44:53;30.10;44.47
65203;HTU21D;51788;45.124;38.966;2022-09-03T15:53:02;29.88;44.81
65203;HTU21D;51788;45.124;38.966;2022-09-03T15:55:41;29.80;44.94
65203;HTU21D;51788;45.124;38.966;2022-09-03T15:58:19;29.72;45.12
65203;HTU21D;51788;45.124;38.966;2022-09-03T16:01:03;29.66;45.20
65203;HTU21D;51788;45.124;38.966;2022-09-03T16:17:28;29.36;45.38
65203;HTU21D;51788;45.124;38.966;2022-09-03T16:19:57;29.31;45.50
65203;HTU21D;51788;45.124;38.966;2022-09-03T16:22:30;29.31;45.28
65203;HTU21D;51788;45.124;38.966;2022-09-03T16:25:13;29.31;45.22
65203;HTU21D;51788;45.124;38.966;2022-09-03T16:31:10;29.31;45.13
65203;HTU21D;51788;45.124;38.966;2022-09-03T16:33:46;29.30;45.03
65203;HTU21D;51788;45.124;38.966;2022-09-03T16:39:23;29.35;44.75
65203;HTU21D;51788;45.124;38.966;2022-09-03T16:41:58;29.35;44.70
65203;HTU21D;51788;45.124;38.966;2022-09-03T16:50:04;29.30;44.60
65203;HTU21D;51788;45.124;38.966;2022-09-03T16:55:33;29.26;44.56
65203;HTU21D;51788;45.124;38.966;2022-09-03T16:58:33;29.29;44.47
65203;HTU21D;51788;45.124;38.966;2022-09-03T17:01:21;29.24;44.47
65203;HTU21D;51788;45.124;38.966;2022-09-03T17:09:26;28.85;45.56
65203;HTU21D;51788;45.124;38.966;2022-09-03T17:12:03;28.64;46.19
65203;HTU21D;51788;45.124;38.966;2022-09-03T17:20:17;28.24;47.58
65203;HTU21D;51788;45.124;38.966;2022-09-03T17:26:09;28.04;47.96
65203;HTU21D;51788;45.124;38.966;2022-09-03T17:29:07;28.01;48.15
65203;HTU21D;51788;45.124;38.966;2022-09-03T17:42:38;28.03;48.27
65203;HTU21D;51788;45.124;38.966;2022-09-03T17:50:33;27.81;48.86
65203;HTU21D;51788;45.124;38.966;2022-09-03T17:56:05;27.63;49.47
65203;HTU21D;51788;45.124;38.966;2022-09-03T17:58:42;27.54;49.53
65203;HTU21D;51788;45.124;38.966;2022-09-03T18:03:46;27.42;49.80
65203;HTU21D;51788;45.124;38.966;2022-09-03T18:09:39;27.41;49.79
65203;HTU21D;51788;45.124;38.966;2022-09-03T18:14:54;27.44;49.71
65203;HTU21D;51788;45.124;38.966;2022-09-03T18:17:30;27.44;49.82
65203;HTU21D;51788;45.124;38.966;2022-09-03T18:20:05;27.40;49.89
65203;HTU21D;51788;45.124;38.966;2022-09-03T18:23:20;27.36;50.00
65203;HTU21D;51788;45.124;38.966;2022-09-03T18:26:07;27.36;50.02
65203;HTU21D;51788;45.124;38.966;2022-09-03T18:29:04;27.28;50.26
65203;HTU21D;51788;45.124;38.966;2022-09-03T18:31:50;27.25;50.30
65203;HTU21D;51788;45.124;38.966;2022-09-03T18:34:35;27.19;50.47
65203;HTU21D;51788;45.124;38.966;2022-09-03T18:37:22;27.19;50.53
65203;HTU21D;51788;45.124;38.966;2022-09-03T18:40:10;27.16;50.57
65203;HTU21D;51788;45.124;38.966;2022-09-03T18:46:05;27.05;50.50
65203;HTU21D;51788;45.124;38.966;2022-09-03T18:48:59;26.96;50.35
65203;HTU21D;51788;45.124;38.966;2022-09-03T18:52:40;26.84;50.37
65203;HTU21D;51788;45.124;38.966;2022-09-03T18:55:37;26.79;50.24
65203;HTU21D;51788;45.124;38.966;2022-09-03T19:01:54;26.76;49.87
65203;HTU21D;51788;45.124;38.966;2022-09-03T19:11:30;27.13;47.64
65203;HTU21D;51788;45.124;38.966;2022-09-03T19:14:32;27.17;47.40
65203;HTU21D;51788;45.124;38.966;2022-09-03T19:18:05;27.19;47.24
65203;HTU21D;51788;45.124;38.966;2022-09-03T19:23:59;27.23;46.59
65203;HTU21D;51788;45.124;38.966;2022-09-03T19:35:50;27.26;45.28
65203;HTU21D;51788;45.124;38.966;2022-09-03T19:39:11;27.19;45.32
65203;HTU21D;51788;45.124;38.966;2022-09-03T19:42:32;27.08;45.47
65203;HTU21D;51788;45.124;38.966;2022-09-03T19:45:23;26.99;45.45
65203;HTU21D;51788;45.124;38.966;2022-09-03T19:51:34;26.83;45.48
65203;HTU21D;51788;45.124;38.966;2022-09-03T19:54:24;26.78;45.57
65203;HTU21D;51788;45.124;38.966;2022-09-03T19:57:11;26.71;45.61
65203;HTU21D;51788;45.124;38.966;2022-09-03T19:59:57;26.66;45.58
65203;HTU21D;51788;45.124;38.966;2022-09-03T20:02:46;26.64;45.44
65203;HTU21D;51788;45.124;38.966;2022-09-03T20:05:31;26.62;45.39
65203;HTU21D;51788;45.124;38.966;2022-09-03T20:08:16;26.61;45.48
65203;HTU21D;51788;45.124;38.966;2022-09-03T20:11:02;26.57;45.34
65203;HTU21D;51788;45.124;38.966;2022-09-03T20:13:28;26.57;45.31
65203;HTU21D;51788;45.124;38.966;2022-09-03T20:16:33;26.56;45.25
65203;HTU21D;51788;45.124;38.966;2022-09-03T20:37:47;26.32;45.44
65203;HTU21D;51788;45.124;38.966;2022-09-03T20:48:33;26.11;45.65
65203;HTU21D;51788;45.124;38.966;2022-09-03T20:51:13;26.05;45.74
65203;HTU21D;51788;45.124;38.966;2022-09-03T21:00:05;25.93;45.85
65203;HTU21D;51788;45.124;38.966;2022-09-03T21:11:37;25.63;46.57
65203;HTU21D;51788;45.124;38.966;2022-09-03T21:19:25;25.46;47.04
65203;HTU21D;51788;45.124;38.966;2022-09-03T21:22:18;25.42;47.15
65203;HTU21D;51788;45.124;38.966;2022-09-03T21:24:52;25.38;47.35
65203;HTU21D;51788;45.124;38.966;2022-09-03T21:27:31;25.33;47.49
65203;HTU21D;51788;45.124;38.966;2022-09-03T21:30:05;25.27;47.63
65203;HTU21D;51788;45.124;38.966;2022-09-03T21:37:40;25.07;48.12
65203;HTU21D;51788;45.124;38.966;2022-09-03T21:40:10;25.05;48.21
65203;HTU21D;51788;45.124;38.966;2022-09-03T21:42:48;25.01;48.44